sensor_id;sensor_type;location;lat;lon;timestamp;pressure;altitude;pressure_sealevel;temperature;humidity
43707;BME280;61348;53.392;-6.248;2023-02-12T00:01:07;102876.34;;;8.61;69.34
43707;BME280;61348;53.392;-6.248;2023-02-12T00:03:36;102881.84;;;8.61;69.66
43707;BME280;61348;53.392;-6.248;2023-02-12T00:06:04;102873.56;;;8.61;69.73
43707;BME280;61348;53.392;-6.248;2023-02-12T00:08:30;102879.91;;;8.62;69.68
43707;BME280;61348;53.392;-6.248;2023-02-12T00:10:57;102878.56;;;8.59;69.74
43707;BME280;61348;53.392;-6.248;2023-02-12T00:13:24;102867.81;;;8.57;69.69
43707;BME280;61348;53.392;-6.248;2023-02-12T00:15:51;102876.88;;;8.58;69.75
43707;BME280;61348;53.392;-6.248;2023-02-12T00:18:18;102885.16;;;8.58;69.70
43707;BME280;61348;53.392;-6.248;2023-02-12T00:20:45;102883.53;;;8.57;69.75
43707;BME280;61348;53.392;-6.248;2023-02-12T00:23:11;102886.56;;;8.55;69.92
43707;BME280;61348;53.392;-6.248;2023-02-12T00:25:41;102885.75;;;8.55;69.94
43707;BME280;61348;53.392;-6.248;2023-02-12T00:28:08;102883.00;;;8.55;69.93
43707;BME280;61348;53.392;-6.248;2023-02-12T00:30:35;102884.63;;;8.56;69.93
43707;BME280;61348;53.392;-6.248;2023-02-12T00:33:02;102880.22;;;8.55;69.99
43707;BME280;61348;53.392;-6.248;2023-02-12T00:35:29;102870.28;;;8.54;69.69
43707;BME280;61348;53.392;-6.248;2023-02-12T00:37:56;102879.41;;;8.54;70.01
43707;BME280;61348;53.392;-6.248;2023-02-12T00:40:23;102877.72;;;8.53;69.97
43707;BME280;61348;53.392;-6.248;2023-02-12T00:42:49;102876.91;;;8.53;70.08
43707;BME280;61348;53.392;-6.248;2023-02-12T00:45:16;102872.22;;;8.53;70.03
43707;BME280;61348;53.392;-6.248;2023-02-12T00:47:43;102878.56;;;8.54;69.91
43707;BME280;61348;53.392;-6.248;2023-02-12T00:50:10;102873.03;;;8.54;70.06
43707;BME280;61348;53.392;-6.248;2023-02-12T00:52:37;102873.88;;;8.54;70.15
43707;BME280;61348;53.392;-6.248;2023-02-12T00:55:04;102874.72;;;8.55;70.19
43707;BME280;61348;53.392;-6.248;2023-02-12T00:57:31;102866.69;;;8.53;70.21
43707;BME280;61348;53.392;-6.248;2023-02-12T00:59:58;102869.44;;;8.53;70.22
43707;BME280;61348;53.392;-6.248;2023-02-12T01:02:25;102858.41;;;8.53;70.25
43707;BME280;61348;53.392;-6.248;2023-02-12T01:04:52;102862.25;;;8.52;70.31
43707;BME280;61348;53.392;-6.248;2023-02-12T01:07:19;102863.09;;;8.53;70.32
43707;BME280;61348;53.392;-6.248;2023-02-12T01:09:46;102853.19;;;8.52;70.39
43707;BME280;61348;53.392;-6.248;2023-02-12T01:12:12;102854.81;;;8.53;70.22
43707;BME280;61348;53.392;-6.248;2023-02-12T01:14:39;102860.34;;;8.53;70.31
43707;BME280;61348;53.392;-6.248;2023-02-12T01:17:07;102853.19;;;8.52;70.41
43707;BME280;61348;53.392;-6.248;2023-02-12T01:19:35;102853.19;;;8.52;70.41
43707;BME280;61348;53.392;-6.248;2023-02-12T01:22:01;102850.13;;;8.53;70.46
43707;BME280;61348;53.392;-6.248;2023-02-12T01:24:28;102852.88;;;8.53;70.36
43707;BME280;61348;53.392;-6.248;2023-02-12T01:26:55;102845.44;;;8.54;70.53
43707;BME280;61348;53.392;-6.248;2023-02-12T01:29:22;102843.78;;;8.53;70.51
43707;BME280;61348;53.392;-6.248;2023-02-12T01:31:49;102834.41;;;8.54;70.46
43707;BME280;61348;53.392;-6.248;2023-02-12T01:34:15;102836.31;;;8.53;70.50
43707;BME280;61348;53.392;-6.248;2023-02-12T01:36:42;102832.72;;;8.53;70.71
43707;BME280;61348;53.392;-6.248;2023-02-12T01:39:10;102842.13;;;8.52;70.68
43707;BME280;61348;53.392;-6.248;2023-02-12T01:41:41;102834.94;;;8.51;70.68
43707;BME280;61348;53.392;-6.248;2023-02-12T01:44:17;102830.53;;;8.50;70.85
43707;BME280;61348;53.392;-6.248;2023-02-12T01:46:46;102830.53;;;8.45;70.97
43707;BME280;61348;53.392;-6.248;2023-02-12T01:49:18;102822.56;;;8.43;70.95
43707;BME280;61348;53.392;-6.248;2023-02-12T01:51:50;102827.78;;;8.45;71.11
43707;BME280;61348;53.392;-6.248;2023-02-12T01:54:21;102820.34;;;8.45;71.19
43707;BME280;61348;53.392;-6.248;2023-02-12T01:56:52;102823.94;;;8.46;71.15
43707;BME280;61348;53.392;-6.248;2023-02-12T01:59:22;102825.03;;;8.45;71.42
43707;BME280;61348;53.392;-6.248;2023-02-12T02:01:50;102815.09;;;8.44;71.28
43707;BME280;61348;53.392;-6.248;2023-02-12T02:04:21;102817.28;;;8.42;71.59
43707;BME280;61348;53.392;-6.248;2023-02-12T02:07:00;102802.97;;;8.40;71.43
43707;BME280;61348;53.392;-6.248;2023-02-12T02:09:30;102805.47;;;8.36;71.72
43707;BME280;61348;53.392;-6.248;2023-02-12T02:11:59;102803.81;;;8.35;71.69
43707;BME280;61348;53.392;-6.248;2023-02-12T02:14:46;102806.84;;;8.34;71.91
43707;BME280;61348;53.392;-6.248;2023-02-12T02:25:55;102796.38;;;8.31;71.86
43707;BME280;61348;53.392;-6.248;2023-02-12T02:31:15;102793.59;;;8.26;72.00
43707;BME280;61348;53.392;-6.248;2023-02-12T02:36:38;102796.38;;;8.26;71.94
43707;BME280;61348;53.392;-6.248;2023-02-12T02:39:51;102797.47;;;8.25;71.70
43707;BME280;61348;53.392;-6.248;2023-02-12T02:42:23;102796.63;;;8.24;71.83
43707;BME280;61348;53.392;-6.248;2023-02-12T02:45:10;102807.66;;;8.24;71.76
43707;BME280;61348;53.392;-6.248;2023-02-12T02:47:44;102799.69;;;8.23;71.72
43707;BME280;61348;53.392;-6.248;2023-02-12T02:50:14;102802.69;;;8.21;71.85
43707;BME280;61348;53.392;-6.248;2023-02-12T02:53:03;102812.91;;;8.21;72.06
43707;BME280;61348;53.392;-6.248;2023-02-12T02:55:37;102810.44;;;8.19;71.93
43707;BME280;61348;53.392;-6.248;2023-02-12T02:58:12;102807.69;;;8.19;71.99
43707;BME280;61348;53.392;-6.248;2023-02-12T03:00:46;102804.91;;;8.19;72.12
43707;BME280;61348;53.392;-6.248;2023-02-12T03:03:22;102814.03;;;8.20;72.08
43707;BME280;61348;53.392;-6.248;2023-02-12T03:05:54;102806.84;;;8.19;72.06
43707;BME280;61348;53.392;-6.248;2023-02-12T03:08:28;102809.59;;;8.19;72.11
43707;BME280;61348;53.392;-6.248;2023-02-12T03:11:29;102801.31;;;8.19;72.29
43707;BME280;61348;53.392;-6.248;2023-02-12T03:16:44;102794.16;;;8.18;72.31
43707;BME280;61348;53.392;-6.248;2023-02-12T03:19:20;102789.75;;;8.17;72.27
43707;BME280;61348;53.392;-6.248;2023-02-12T03:22:01;102802.72;;;8.16;72.28
43707;BME280;61348;53.392;-6.248;2023-02-12T03:24:34;102792.81;;;8.15;72.24
43707;BME280;61348;53.392;-6.248;2023-02-12T03:27:07;102791.97;;;8.15;72.37
43707;BME280;61348;53.392;-6.248;2023-02-12T03:29:35;102796.66;;;8.14;72.32
43707;BME280;61348;53.392;-6.248;2023-02-12T03:32:11;102788.66;;;8.13;72.38
43707;BME280;61348;53.392;-6.248;2023-02-12T03:37:27;102784.78;;;8.14;72.27
43707;BME280;61348;53.392;-6.248;2023-02-12T03:40:23;102782.84;;;8.14;72.32
43707;BME280;61348;53.392;-6.248;2023-02-12T03:45:49;102775.41;;;8.15;72.22
43707;BME280;61348;53.392;-6.248;2023-02-12T03:50:57;102777.63;;;8.13;72.30
43707;BME280;61348;53.392;-6.248;2023-02-12T03:53:26;102778.44;;;8.13;72.39
43707;BME280;61348;53.392;-6.248;2023-02-12T03:56:08;102772.13;;;8.13;72.43
43707;BME280;61348;53.392;-6.248;2023-02-12T03:58:39;102762.72;;;8.14;72.42
43707;BME280;61348;53.392;-6.248;2023-02-12T04:01:07;102760.78;;;8.14;72.41
43707;BME280;61348;53.392;-6.248;2023-02-12T04:03:34;102759.94;;;8.14;72.37
43707;BME280;61348;53.392;-6.248;2023-02-12T04:06:01;102757.19;;;8.14;72.47
43707;BME280;61348;53.392;-6.248;2023-02-12T04:08:29;102769.06;;;8.14;72.60
43707;BME280;61348;53.392;-6.248;2023-02-12T04:11:46;102771.81;;;8.14;72.56
43707;BME280;61348;53.392;-6.248;2023-02-12T04:17:29;102772.91;;;8.13;72.42
43707;BME280;61348;53.392;-6.248;2023-02-12T04:23:07;102761.06;;;8.13;72.45
43707;BME280;61348;53.392;-6.248;2023-02-12T04:26:27;102767.69;;;8.12;72.60
43707;BME280;61348;53.392;-6.248;2023-02-12T04:34:36;102768.78;;;8.11;72.68
43707;BME280;61348;53.392;-6.248;2023-02-12T04:40:13;102771.84;;;8.09;72.75
43707;BME280;61348;53.392;-6.248;2023-02-12T04:42:45;102773.75;;;8.09;73.02
43707;BME280;61348;53.392;-6.248;2023-02-12T04:45:13;102781.22;;;8.08;72.96
43707;BME280;61348;53.392;-6.248;2023-02-12T04:47:40;102774.84;;;8.08;73.05
43707;BME280;61348;53.392;-6.248;2023-02-12T04:50:07;102776.53;;;8.09;73.17
43707;BME280;61348;53.392;-6.248;2023-02-12T04:52:34;102780.38;;;8.08;73.20
43707;BME280;61348;53.392;-6.248;2023-02-12T04:55:01;102781.22;;;8.08;73.27
43707;BME280;61348;53.392;-6.248;2023-02-12T04:57:28;102785.91;;;8.08;73.36
43707;BME280;61348;53.392;-6.248;2023-02-12T04:59:55;102791.41;;;8.08;73.51
43707;BME280;61348;53.392;-6.248;2023-02-12T05:02:22;102791.41;;;8.08;73.52
43707;BME280;61348;53.392;-6.248;2023-02-12T05:04:49;102793.38;;;8.07;73.49
43707;BME280;61348;53.392;-6.248;2023-02-12T05:07:16;102789.78;;;8.07;73.83
43707;BME280;61348;53.392;-6.248;2023-02-12T05:09:43;102790.88;;;8.06;73.75
43707;BME280;61348;53.392;-6.248;2023-02-12T05:12:09;102788.09;;;8.06;73.92
43707;BME280;61348;53.392;-6.248;2023-02-12T05:14:36;102794.75;;;8.05;74.11
43707;BME280;61348;53.392;-6.248;2023-02-12T05:17:03;102789.22;;;8.05;74.06
43707;BME280;61348;53.392;-6.248;2023-02-12T05:19:30;102789.50;;;8.03;74.14
43707;BME280;61348;53.392;-6.248;2023-02-12T05:21:56;102795.00;;;8.03;74.25
43707;BME280;61348;53.392;-6.248;2023-02-12T05:24:23;102787.03;;;8.02;74.28
43707;BME280;61348;53.392;-6.248;2023-02-12T05:26:51;102795.00;;;8.03;74.35
43707;BME280;61348;53.392;-6.248;2023-02-12T05:29:18;102801.38;;;8.04;74.64
43707;BME280;61348;53.392;-6.248;2023-02-12T05:31:45;102794.19;;;8.03;74.52
43707;BME280;61348;53.392;-6.248;2023-02-12T05:34:12;102795.00;;;8.03;74.69
43707;BME280;61348;53.392;-6.248;2023-02-12T05:36:39;102793.38;;;8.02;74.74
43707;BME280;61348;53.392;-6.248;2023-02-12T05:39:06;102795.31;;;8.02;74.88
43707;BME280;61348;53.392;-6.248;2023-02-12T05:41:33;102787.03;;;8.02;75.01
43707;BME280;61348;53.392;-6.248;2023-02-12T05:44:04;102785.91;;;8.03;75.02
43707;BME280;61348;53.392;-6.248;2023-02-12T05:46:32;102792.53;;;8.02;75.06
43707;BME280;61348;53.392;-6.248;2023-02-12T05:48:59;102782.06;;;7.98;75.26
43707;BME280;61348;53.392;-6.248;2023-02-12T05:51:26;102785.91;;;7.97;75.47
43707;BME280;61348;53.392;-6.248;2023-02-12T05:54:00;102786.75;;;7.98;75.56
43707;BME280;61348;53.392;-6.248;2023-02-12T05:56:42;102784.00;;;7.98;75.38
43707;BME280;61348;53.392;-6.248;2023-02-12T05:59:15;102789.50;;;7.98;75.57
43707;BME280;61348;53.392;-6.248;2023-02-12T06:01:43;102785.91;;;7.97;75.67
43707;BME280;61348;53.392;-6.248;2023-02-12T06:04:22;102780.41;;;7.97;75.66
43707;BME280;61348;53.392;-6.248;2023-02-12T06:06:51;102787.59;;;7.98;75.81
43707;BME280;61348;53.392;-6.248;2023-02-12T06:09:18;102787.59;;;7.98;75.89
43707;BME280;61348;53.392;-6.248;2023-02-12T06:11:45;102787.59;;;7.98;75.97
43707;BME280;61348;53.392;-6.248;2023-02-12T06:14:15;102778.19;;;7.99;75.90
43707;BME280;61348;53.392;-6.248;2023-02-12T06:16:49;102776.53;;;7.98;75.96
43707;BME280;61348;53.392;-6.248;2023-02-12T06:19:17;102774.63;;;7.99;76.05
43707;BME280;61348;53.392;-6.248;2023-02-12T06:21:44;102774.63;;;7.99;76.13
43707;BME280;61348;53.392;-6.248;2023-02-12T06:24:13;102772.66;;;7.99;76.20
43707;BME280;61348;53.392;-6.248;2023-02-12T06:26:41;102774.34;;;8.01;76.49
43707;BME280;61348;53.392;-6.248;2023-02-12T06:29:09;102772.66;;;7.99;76.60
43707;BME280;61348;53.392;-6.248;2023-02-12T06:31:36;102771.03;;;7.98;76.57
43707;BME280;61348;53.392;-6.248;2023-02-12T06:34:08;102776.53;;;7.98;76.66
43707;BME280;61348;53.392;-6.248;2023-02-12T06:36:36;102771.03;;;7.98;76.67
43707;BME280;61348;53.392;-6.248;2023-02-12T06:39:04;102764.69;;;7.98;76.71
43707;BME280;61348;53.392;-6.248;2023-02-12T06:41:31;102766.59;;;7.97;76.83
43707;BME280;61348;53.392;-6.248;2023-02-12T06:43:57;102775.72;;;7.98;76.84
43707;BME280;61348;53.392;-6.248;2023-02-12T06:46:24;102771.28;;;7.97;76.92
43707;BME280;61348;53.392;-6.248;2023-02-12T06:48:55;102768.53;;;7.97;77.04
43707;BME280;61348;53.392;-6.248;2023-02-12T06:51:23;102761.09;;;7.97;77.18
43707;BME280;61348;53.392;-6.248;2023-02-12T06:53:51;102763.84;;;7.97;76.94
43707;BME280;61348;53.392;-6.248;2023-02-12T06:56:20;102756.97;;;7.95;77.14
43707;BME280;61348;53.392;-6.248;2023-02-12T06:58:56;102760.56;;;7.95;77.22
43707;BME280;61348;53.392;-6.248;2023-02-12T07:01:26;102756.13;;;7.94;77.27
43707;BME280;61348;53.392;-6.248;2023-02-12T07:03:55;102750.63;;;7.94;77.11
43707;BME280;61348;53.392;-6.248;2023-02-12T07:06:23;102755.59;;;7.92;77.32
43707;BME280;61348;53.392;-6.248;2023-02-12T07:08:51;102755.59;;;7.92;77.32
43707;BME280;61348;53.392;-6.248;2023-02-12T07:11:22;102758.34;;;7.92;77.40
43707;BME280;61348;53.392;-6.248;2023-02-12T07:13:49;102756.72;;;7.91;77.42
43707;BME280;61348;53.392;-6.248;2023-02-12T07:16:16;102763.31;;;7.90;77.50
43707;BME280;61348;53.392;-6.248;2023-02-12T07:18:44;102761.41;;;7.91;77.18
43707;BME280;61348;53.392;-6.248;2023-02-12T07:21:12;102763.03;;;7.92;77.36
43707;BME280;61348;53.392;-6.248;2023-02-12T07:23:40;102763.84;;;7.92;77.56
43707;BME280;61348;53.392;-6.248;2023-02-12T07:26:10;102767.75;;;7.91;77.42
43707;BME280;61348;53.392;-6.248;2023-02-12T07:28:38;102772.44;;;7.91;77.64
43707;BME280;61348;53.392;-6.248;2023-02-12T07:31:08;102770.50;;;7.91;77.64
43707;BME280;61348;53.392;-6.248;2023-02-12T07:33:36;102776.00;;;7.91;77.64
43707;BME280;61348;53.392;-6.248;2023-02-12T07:36:06;102773.53;;;7.90;77.75
43707;BME280;61348;53.392;-6.248;2023-02-12T07:38:33;102779.88;;;7.90;77.95
43707;BME280;61348;53.392;-6.248;2023-02-12T07:43:36;102791.72;;;7.91;77.85
43707;BME280;61348;53.392;-6.248;2023-02-12T07:46:12;102792.00;;;7.89;77.92
43707;BME280;61348;53.392;-6.248;2023-02-12T07:48:39;102789.81;;;7.91;77.93
43707;BME280;61348;53.392;-6.248;2023-02-12T07:51:08;102783.47;;;7.91;78.06
43707;BME280;61348;53.392;-6.248;2023-02-12T07:53:35;102790.59;;;7.92;77.99
43707;BME280;61348;53.392;-6.248;2023-02-12T07:56:16;102792.56;;;7.91;78.18
43707;BME280;61348;53.392;-6.248;2023-02-12T07:58:45;102797.25;;;7.91;78.09
43707;BME280;61348;53.392;-6.248;2023-02-12T08:03:39;102791.72;;;7.91;78.22
43707;BME280;61348;53.392;-6.248;2023-02-12T08:06:12;102803.59;;;7.91;77.94
43707;BME280;61348;53.392;-6.248;2023-02-12T08:08:40;102806.91;;;7.93;78.26
43707;BME280;61348;53.392;-6.248;2023-02-12T08:11:08;102809.66;;;7.93;78.43
43707;BME280;61348;53.392;-6.248;2023-02-12T08:13:37;102815.16;;;7.93;78.25
43707;BME280;61348;53.392;-6.248;2023-02-12T08:16:07;102814.03;;;7.94;78.29
43707;BME280;61348;53.392;-6.248;2023-02-12T08:18:34;102806.59;;;7.95;78.37
43707;BME280;61348;53.392;-6.248;2023-02-12T08:21:15;102810.19;;;7.95;78.53
43707;BME280;61348;53.392;-6.248;2023-02-12T08:23:44;102811.88;;;7.96;78.41
43707;BME280;61348;53.392;-6.248;2023-02-12T08:26:17;102816.25;;;7.97;78.41
43707;BME280;61348;53.392;-6.248;2023-02-12T08:28:50;102811.28;;;7.99;78.52
43707;BME280;61348;53.392;-6.248;2023-02-12T08:31:19;102803.84;;;8.00;78.46
43707;BME280;61348;53.392;-6.248;2023-02-12T08:33:50;102814.63;;;8.02;78.54
43707;BME280;61348;53.392;-6.248;2023-02-12T08:36:22;102822.59;;;8.03;78.55
43707;BME280;61348;53.392;-6.248;2023-02-12T08:38:50;102814.88;;;8.05;78.48
43707;BME280;61348;53.392;-6.248;2023-02-12T08:41:24;102820.13;;;8.07;78.56
43707;BME280;61348;53.392;-6.248;2023-02-12T08:43:54;102820.66;;;8.09;78.48
43707;BME280;61348;53.392;-6.248;2023-02-12T08:46:24;102810.72;;;8.08;78.65
43707;BME280;61348;53.392;-6.248;2023-02-12T08:48:56;102808.53;;;8.10;78.49
43707;BME280;61348;53.392;-6.248;2023-02-12T08:51:25;102804.38;;;8.12;78.45
43707;BME280;61348;53.392;-6.248;2023-02-12T08:53:57;102801.34;;;8.14;78.39
43707;BME280;61348;53.392;-6.248;2023-02-12T08:56:25;102795.81;;;8.14;78.60
43707;BME280;61348;53.392;-6.248;2023-02-12T08:58:52;102800.50;;;8.13;78.66
43707;BME280;61348;53.392;-6.248;2023-02-12T09:01:21;102808.53;;;8.15;78.43
43707;BME280;61348;53.392;-6.248;2023-02-12T09:03:49;102801.31;;;8.19;78.55
43707;BME280;61348;53.392;-6.248;2023-02-12T09:06:18;102803.53;;;8.22;78.62
43707;BME280;61348;53.392;-6.248;2023-02-12T09:08:45;102802.97;;;8.25;78.46
43707;BME280;61348;53.392;-6.248;2023-02-12T09:11:15;102801.88;;;8.26;78.49
43707;BME280;61348;53.392;-6.248;2023-02-12T09:13:44;102807.13;;;8.27;78.54
43707;BME280;61348;53.392;-6.248;2023-02-12T09:16:12;102808.50;;;8.30;78.55
43707;BME280;61348;53.392;-6.248;2023-02-12T09:18:39;102805.19;;;8.33;78.56
43707;BME280;61348;53.392;-6.248;2023-02-12T09:21:11;102799.38;;;8.34;78.50
43707;BME280;61348;53.392;-6.248;2023-02-12T09:23:39;102798.56;;;8.39;78.33
43707;BME280;61348;53.392;-6.248;2023-02-12T09:26:08;102791.66;;;8.41;78.61
43707;BME280;61348;53.392;-6.248;2023-02-12T09:28:37;102796.88;;;8.43;78.40
43707;BME280;61348;53.392;-6.248;2023-02-12T09:31:10;102795.78;;;8.44;78.33
43707;BME280;61348;53.392;-6.248;2023-02-12T09:33:37;102790.50;;;8.47;78.43
43707;BME280;61348;53.392;-6.248;2023-02-12T09:36:07;102786.34;;;8.50;78.43
43707;BME280;61348;53.392;-6.248;2023-02-12T09:38:34;102788.03;;;8.51;78.34
43707;BME280;61348;53.392;-6.248;2023-02-12T09:44:05;102783.59;;;8.55;78.18
43707;BME280;61348;53.392;-6.248;2023-02-12T09:47:02;102775.84;;;8.57;78.17
43707;BME280;61348;53.392;-6.248;2023-02-12T09:52:24;102773.34;;;8.61;78.04
43707;BME280;61348;53.392;-6.248;2023-02-12T09:54:52;102773.63;;;8.59;78.04
43707;BME280;61348;53.392;-6.248;2023-02-12T09:57:26;102762.28;;;8.61;77.96
43707;BME280;61348;53.392;-6.248;2023-02-12T10:00:01;102763.44;;;8.60;77.85
43707;BME280;61348;53.392;-6.248;2023-02-12T10:02:28;102775.84;;;8.62;77.99
43707;BME280;61348;53.392;-6.248;2023-02-12T10:04:56;102760.91;;;8.63;77.77
43707;BME280;61348;53.392;-6.248;2023-02-12T10:13:07;102774.72;;;8.68;77.51
43707;BME280;61348;53.392;-6.248;2023-02-12T10:24:05;102764.69;;;8.82;76.92
43707;BME280;61348;53.392;-6.248;2023-02-12T10:26:42;102763.56;;;8.88;76.82
43707;BME280;61348;53.392;-6.248;2023-02-12T10:29:22;102762.97;;;8.91;76.63
43707;BME280;61348;53.392;-6.248;2023-02-12T10:31:54;102767.13;;;8.94;76.51
43707;BME280;61348;53.392;-6.248;2023-02-12T10:34:37;102767.38;;;8.97;76.17
43707;BME280;61348;53.392;-6.248;2023-02-12T10:37:34;102767.38;;;8.97;75.88
43707;BME280;61348;53.392;-6.248;2023-02-12T10:40:25;102765.16;;;8.99;75.78
43707;BME280;61348;53.392;-6.248;2023-02-12T10:42:59;102762.38;;;8.99;75.51
43707;BME280;61348;53.392;-6.248;2023-02-12T10:45:35;102756.56;;;9.01;75.53
43707;BME280;61348;53.392;-6.248;2023-02-12T10:50:40;102763.44;;;9.03;74.81
43707;BME280;61348;53.392;-6.248;2023-02-12T10:53:20;102753.75;;;9.06;74.64
43707;BME280;61348;53.392;-6.248;2023-02-12T10:55:47;102763.38;;;9.13;74.45
43707;BME280;61348;53.392;-6.248;2023-02-12T10:58:20;102756.72;;;9.19;74.22
43707;BME280;61348;53.392;-6.248;2023-02-12T11:00:58;102763.88;;;9.26;73.85
43707;BME280;61348;53.392;-6.248;2023-02-12T11:03:30;102757.78;;;9.29;73.75
43707;BME280;61348;53.392;-6.248;2023-02-12T11:06:15;102768.22;;;9.37;73.79
43707;BME280;61348;53.392;-6.248;2023-02-12T11:08:43;102757.13;;;9.42;73.46
43707;BME280;61348;53.392;-6.248;2023-02-12T11:11:18;102751.59;;;9.42;73.21
43707;BME280;61348;53.392;-6.248;2023-02-12T11:13:53;102740.75;;;9.45;73.18
43707;BME280;61348;53.392;-6.248;2023-02-12T11:16:31;102741.00;;;9.49;72.96
43707;BME280;61348;53.392;-6.248;2023-02-12T11:19:07;102745.97;;;9.52;72.99
43707;BME280;61348;53.392;-6.248;2023-02-12T11:21:43;102744.31;;;9.51;72.80
43707;BME280;61348;53.392;-6.248;2023-02-12T11:24:30;102745.13;;;9.51;72.53
43707;BME280;61348;53.392;-6.248;2023-02-12T11:29:37;102734.91;;;9.52;72.33
43707;BME280;61348;53.392;-6.248;2023-02-12T11:32:07;102740.97;;;9.54;72.30
43707;BME280;61348;53.392;-6.248;2023-02-12T11:34:35;102731.84;;;9.53;71.91
43707;BME280;61348;53.392;-6.248;2023-02-12T11:37:02;102733.19;;;9.56;72.18
43707;BME280;61348;53.392;-6.248;2023-02-12T11:39:35;102741.50;;;9.56;71.85
43707;BME280;61348;53.392;-6.248;2023-02-12T11:42:14;102737.00;;;9.65;72.01
43707;BME280;61348;53.392;-6.248;2023-02-12T11:44:47;102720.09;;;9.66;71.77
43707;BME280;61348;53.392;-6.248;2023-02-12T11:47:21;102718.75;;;9.64;71.84
43707;BME280;61348;53.392;-6.248;2023-02-12T11:49:58;102715.41;;;9.67;71.96
43707;BME280;61348;53.392;-6.248;2023-02-12T11:52:33;102712.88;;;9.70;71.95
43707;BME280;61348;53.392;-6.248;2023-02-12T11:55:16;102718.66;;;9.74;71.86
43707;BME280;61348;53.392;-6.248;2023-02-12T11:57:49;102721.44;;;9.74;71.66
43707;BME280;61348;53.392;-6.248;2023-02-12T12:03:10;102716.69;;;9.74;71.75
43707;BME280;61348;53.392;-6.248;2023-02-12T12:05:44;102714.97;;;9.84;71.95
43707;BME280;61348;53.392;-6.248;2023-02-12T12:08:28;102705.56;;;9.85;71.73
43707;BME280;61348;53.392;-6.248;2023-02-12T12:11:05;102707.25;;;9.80;71.82
43707;BME280;61348;53.392;-6.248;2023-02-12T12:13:43;102698.63;;;9.87;71.84
43707;BME280;61348;53.392;-6.248;2023-02-12T12:16:23;102696.25;;;9.99;71.67
43707;BME280;61348;53.392;-6.248;2023-02-12T12:19:16;102686.03;;;10.00;71.64
43707;BME280;61348;53.392;-6.248;2023-02-12T12:22:13;102683.53;;;9.98;71.31
43707;BME280;61348;53.392;-6.248;2023-02-12T12:24:48;102665.41;;;9.87;71.33
43707;BME280;61348;53.392;-6.248;2023-02-12T12:30:14;102657.03;;;9.68;71.60
43707;BME280;61348;53.392;-6.248;2023-02-12T12:32:44;102655.50;;;9.57;71.41
43707;BME280;61348;53.392;-6.248;2023-02-12T12:35:17;102657.78;;;9.50;71.27
43707;BME280;61348;53.392;-6.248;2023-02-12T12:37:54;102644.75;;;9.51;71.56
43707;BME280;61348;53.392;-6.248;2023-02-12T12:43:12;102637.97;;;9.67;71.38
43707;BME280;61348;53.392;-6.248;2023-02-12T12:54:02;102644.91;;;9.88;71.69
43707;BME280;61348;53.392;-6.248;2023-02-12T13:05:21;102630.38;;;10.01;72.13
43707;BME280;61348;53.392;-6.248;2023-02-12T13:10:48;102622.97;;;9.97;71.87
43707;BME280;61348;53.392;-6.248;2023-02-12T13:13:21;102624.97;;;9.91;71.33
43707;BME280;61348;53.392;-6.248;2023-02-12T13:16:22;102626.56;;;9.97;71.05
43707;BME280;61348;53.392;-6.248;2023-02-12T13:21:43;102615.31;;;10.12;70.34
43707;BME280;61348;53.392;-6.248;2023-02-12T13:26:44;102625.22;;;10.18;69.84
43707;BME280;61348;53.392;-6.248;2023-02-12T13:29:19;102620.66;;;10.27;69.68
43707;BME280;61348;53.392;-6.248;2023-02-12T13:31:50;102621.63;;;10.36;69.65
43707;BME280;61348;53.392;-6.248;2023-02-12T13:34:20;102612.81;;;10.53;69.57
43707;BME280;61348;53.392;-6.248;2023-02-12T13:36:48;102612.91;;;10.67;69.08
43707;BME280;61348;53.392;-6.248;2023-02-12T13:39:39;102614.06;;;10.79;69.07
43707;BME280;61348;53.392;-6.248;2023-02-12T13:44:57;102607.03;;;10.87;69.49
43707;BME280;61348;53.392;-6.248;2023-02-12T13:47:38;102606.78;;;10.83;69.71
43707;BME280;61348;53.392;-6.248;2023-02-12T13:52:58;102605.38;;;10.86;69.88
43707;BME280;61348;53.392;-6.248;2023-02-12T13:55:38;102612.13;;;10.80;69.54
43707;BME280;61348;53.392;-6.248;2023-02-12T13:58:44;102603.97;;;10.70;69.16
43707;BME280;61348;53.392;-6.248;2023-02-12T14:01:36;102592.75;;;10.61;68.83
43707;BME280;61348;53.392;-6.248;2023-02-12T14:06:56;102594.94;;;10.46;68.76
43707;BME280;61348;53.392;-6.248;2023-02-12T14:09:35;102597.75;;;10.40;69.09
43707;BME280;61348;53.392;-6.248;2023-02-12T14:12:09;102601.22;;;10.32;69.17
43707;BME280;61348;53.392;-6.248;2023-02-12T14:14:46;102589.75;;;10.20;68.77
43707;BME280;61348;53.392;-6.248;2023-02-12T14:20:26;102582.16;;;10.07;68.56
43707;BME280;61348;53.392;-6.248;2023-02-12T14:23:00;102587.69;;;10.07;68.79
43707;BME280;61348;53.392;-6.248;2023-02-12T14:25:40;102574.25;;;10.19;68.68
43707;BME280;61348;53.392;-6.248;2023-02-12T14:28:21;102579.50;;;10.39;68.67
43707;BME280;61348;53.392;-6.248;2023-02-12T14:33:49;102558.31;;;10.30;68.04
43707;BME280;61348;53.392;-6.248;2023-02-12T14:45:03;102573.72;;;10.73;68.81
43707;BME280;61348;53.392;-6.248;2023-02-12T14:50:14;102562.22;;;10.66;69.29
43707;BME280;61348;53.392;-6.248;2023-02-12T14:52:48;102565.63;;;10.77;69.64
43707;BME280;61348;53.392;-6.248;2023-02-12T14:55:26;102556.25;;;10.73;69.54
43707;BME280;61348;53.392;-6.248;2023-02-12T14:58:17;102559.59;;;10.75;69.64
43707;BME280;61348;53.392;-6.248;2023-02-12T15:00:47;102556.25;;;10.73;69.60
43707;BME280;61348;53.392;-6.248;2023-02-12T15:03:28;102561.88;;;10.68;69.58
43707;BME280;61348;53.392;-6.248;2023-02-12T15:06:18;102566.19;;;10.60;69.59
43707;BME280;61348;53.392;-6.248;2023-02-12T15:08:56;102559.47;;;10.48;69.38
43707;BME280;61348;53.392;-6.248;2023-02-12T15:14:54;102561.09;;;10.30;69.45
43707;BME280;61348;53.392;-6.248;2023-02-12T15:17:10;102553.69;;;10.25;69.51
43707;BME280;61348;53.392;-6.248;2023-02-12T15:19:52;102563.41;;;10.23;69.49
43707;BME280;61348;53.392;-6.248;2023-02-12T15:22:26;102550.91;;;10.25;69.36
43707;BME280;61348;53.392;-6.248;2023-02-12T15:25:27;102558.41;;;10.25;69.26
43707;BME280;61348;53.392;-6.248;2023-02-12T15:27:57;102558.47;;;10.20;69.34